sensor_id;sensor_type;location;lat;lon;timestamp;P1;durP1;ratioP1;P2;durP2;ratioP2
31306;SDS011;17935;51.120;13.132;2022-09-27T00:01:53;3.50;;;2.33;;
31306;SDS011;17935;51.120;13.132;2022-09-27T00:04:19;4.35;;;1.98;;
31306;SDS011;17935;51.120;13.132;2022-09-27T00:06:45;10.45;;;2.35;;
31306;SDS011;17935;51.120;13.132;2022-09-27T00:09:11;2.40;;;1.98;;
31306;SDS011;17935;51.120;13.132;2022-09-27T00:11:38;5.82;;;2.35;;
31306;SDS011;17935;51.120;13.132;2022-09-27T00:14:04;3.40;;;2.08;;
31306;SDS011;17935;51.120;13.132;2022-09-27T00:16:32;2.05;;;1.83;;
31306;SDS011;17935;51.120;13.132;2022-09-27T00:18:59;2.95;;;1.85;;
31306;SDS011;17935;51.120;13.132;2022-09-27T00:21:25;8.27;;;1.88;;
31306;SDS011;17935;51.120;13.132;2022-09-27T00:23:51;3.58;;;2.03;;
31306;SDS011;17935;51.120;13.132;2022-09-27T00:26:17;2.90;;;2.22;;
31306;SDS011;17935;51.120;13.132;2022-09-27T00:28:43;2.80;;;1.80;;
31306;SDS011;17935;51.120;13.132;2022-09-27T00:31:11;4.68;;;1.95;;
31306;SDS011;17935;51.120;13.132;2022-09-27T00:33:38;2.92;;;2.13;;
31306;SDS011;17935;51.120;13.132;2022-09-27T00:36:05;3.70;;;1.90;;
31306;SDS011;17935;51.120;13.132;2022-09-27T00:38:31;3.50;;;1.80;;
31306;SDS011;17935;51.120;13.132;2022-09-27T00:40:57;3.92;;;1.92;;
31306;SDS011;17935;51.120;13.132;2022-09-27T00:43:23;3.97;;;1.60;;
31306;SDS011;17935;51.120;13.132;2022-09-27T00:45:50;3.42;;;1.70;;
31306;SDS011;17935;51.120;13.132;2022-09-27T00:48:18;1.90;;;1.30;;
31306;SDS011;17935;51.120;13.132;2022-09-27T00:50:46;1.90;;;1.73;;
31306;SDS011;17935;51.120;13.132;2022-09-27T00:53:27;5.47;;;1.98;;
31306;SDS011;17935;51.120;13.132;2022-09-27T00:56:00;4.78;;;2.13;;
31306;SDS011;17935;51.120;13.132;2022-09-27T01:00:54;5.97;;;1.80;;
31306;SDS011;17935;51.120;13.132;2022-09-27T01:03:25;3.85;;;1.80;;
31306;SDS011;17935;51.120;13.132;2022-09-27T01:05:53;6.47;;;1.65;;
31306;SDS011;17935;51.120;13.132;2022-09-27T01:08:20;3.15;;;1.67;;
31306;SDS011;17935;51.120;13.132;2022-09-27T01:10:50;2.00;;;1.50;;
31306;SDS011;17935;51.120;13.132;2022-09-27T01:16:07;6.22;;;1.60;;
31306;SDS011;17935;51.120;13.132;2022-09-27T01:18:35;4.88;;;1.95;;
31306;SDS011;17935;51.120;13.132;2022-09-27T01:21:14;4.13;;;1.50;;
31306;SDS011;17935;51.120;13.132;2022-09-27T01:24:01;1.70;;;1.52;;
31306;SDS011;17935;51.120;13.132;2022-09-27T01:26:41;4.03;;;1.88;;
31306;SDS011;17935;51.120;13.132;2022-09-27T01:29:10;2.08;;;1.52;;
31306;SDS011;17935;51.120;13.132;2022-09-27T01:34:06;8.82;;;1.83;;
31306;SDS011;17935;51.120;13.132;2022-09-27T01:41:59;2.50;;;1.70;;
31306;SDS011;17935;51.120;13.132;2022-09-27T01:44:34;4.13;;;1.70;;
31306;SDS011;17935;51.120;13.132;2022-09-27T01:47:03;3.13;;;2.10;;
31306;SDS011;17935;51.120;13.132;2022-09-27T01:49:32;2.60;;;1.95;;
31306;SDS011;17935;51.120;13.132;2022-09-27T01:52:01;2.13;;;1.65;;
31306;SDS011;17935;51.120;13.132;2022-09-27T01:54:34;4.63;;;1.80;;
31306;SDS011;17935;51.120;13.132;2022-09-27T01:57:02;5.75;;;1.65;;
31306;SDS011;17935;51.120;13.132;2022-09-27T01:59:30;2.13;;;1.52;;
31306;SDS011;17935;51.120;13.132;2022-09-27T02:01:59;2.92;;;1.40;;
31306;SDS011;17935;51.120;13.132;2022-09-27T02:04:29;4.85;;;2.50;;
31306;SDS011;17935;51.120;13.132;2022-09-27T02:06:57;4.47;;;2.30;;
31306;SDS011;17935;51.120;13.132;2022-09-27T02:09:38;2.40;;;1.77;;
31306;SDS011;17935;51.120;13.132;2022-09-27T02:12:07;1.83;;;1.70;;
31306;SDS011;17935;51.120;13.132;2022-09-27T02:17:10;3.90;;;1.90;;
31306;SDS011;17935;51.120;13.132;2022-09-27T02:25:01;3.45;;;2.05;;
31306;SDS011;17935;51.120;13.132;2022-09-27T02:27:33;2.75;;;1.58;;
31306;SDS011;17935;51.120;13.132;2022-09-27T02:30:01;5.13;;;1.83;;
31306;SDS011;17935;51.120;13.132;2022-09-27T02:32:30;1.60;;;1.50;;
31306;SDS011;17935;51.120;13.132;2022-09-27T02:34:57;2.53;;;1.90;;
31306;SDS011;17935;51.120;13.132;2022-09-27T02:37:25;3.03;;;1.70;;
31306;SDS011;17935;51.120;13.132;2022-09-27T02:39:51;3.72;;;1.73;;
31306;SDS011;17935;51.120;13.132;2022-09-27T02:42:17;2.85;;;1.70;;
31306;SDS011;17935;51.120;13.132;2022-09-27T02:44:43;6.72;;;2.00;;
31306;SDS011;17935;51.120;13.132;2022-09-27T02:47:23;12.45;;;3.25;;
31306;SDS011;17935;51.120;13.132;2022-09-27T02:52:42;1.63;;;1.50;;
31306;SDS011;17935;51.120;13.132;2022-09-27T02:55:18;3.15;;;2.00;;
31306;SDS011;17935;51.120;13.132;2022-09-27T02:58:02;1.70;;;1.58;;
31306;SDS011;17935;51.120;13.132;2022-09-27T03:06:12;4.38;;;2.28;;
31306;SDS011;17935;51.120;13.132;2022-09-27T03:08:39;9.68;;;2.33;;
31306;SDS011;17935;51.120;13.132;2022-09-27T03:11:05;5.07;;;2.03;;
31306;SDS011;17935;51.120;13.132;2022-09-27T03:13:31;2.25;;;2.00;;
31306;SDS011;17935;51.120;13.132;2022-09-27T03:15:58;2.80;;;1.88;;
31306;SDS011;17935;51.120;13.132;2022-09-27T03:18:24;4.90;;;2.00;;
31306;SDS011;17935;51.120;13.132;2022-09-27T03:20:51;5.28;;;2.05;;
31306;SDS011;17935;51.120;13.132;2022-09-27T03:23:18;4.30;;;2.30;;
31306;SDS011;17935;51.120;13.132;2022-09-27T03:25:44;4.47;;;2.25;;
31306;SDS011;17935;51.120;13.132;2022-09-27T03:28:10;3.63;;;2.28;;
31306;SDS011;17935;51.120;13.132;2022-09-27T03:30:36;2.63;;;2.00;;
31306;SDS011;17935;51.120;13.132;2022-09-27T03:33:02;4.05;;;2.15;;
31306;SDS011;17935;51.120;13.132;2022-09-27T03:35:28;3.42;;;1.90;;
31306;SDS011;17935;51.120;13.132;2022-09-27T03:37:54;6.38;;;2.58;;
31306;SDS011;17935;51.120;13.132;2022-09-27T03:40:20;3.28;;;2.38;;
31306;SDS011;17935;51.120;13.132;2022-09-27T03:42:46;4.85;;;2.88;;
31306;SDS011;17935;51.120;13.132;2022-09-27T03:45:14;6.63;;;2.80;;
31306;SDS011;17935;51.120;13.132;2022-09-27T03:47:40;4.50;;;2.58;;
31306;SDS011;17935;51.120;13.132;2022-09-27T03:50:06;3.28;;;2.45;;
31306;SDS011;17935;51.120;13.132;2022-09-27T03:52:33;5.32;;;2.50;;
31306;SDS011;17935;51.120;13.132;2022-09-27T03:54:59;3.17;;;2.38;;
31306;SDS011;17935;51.120;13.132;2022-09-27T03:57:25;7.18;;;2.72;;
31306;SDS011;17935;51.120;13.132;2022-09-27T03:59:51;3.95;;;3.22;;
31306;SDS011;17935;51.120;13.132;2022-09-27T04:02:17;8.40;;;4.38;;
31306;SDS011;17935;51.120;13.132;2022-09-27T04:04:43;5.45;;;3.65;;
31306;SDS011;17935;51.120;13.132;2022-09-27T04:07:09;6.18;;;3.20;;
31306;SDS011;17935;51.120;13.132;2022-09-27T04:09:35;3.60;;;2.80;;
31306;SDS011;17935;51.120;13.132;2022-09-27T04:12:01;5.80;;;3.17;;
31306;SDS011;17935;51.120;13.132;2022-09-27T04:14:27;4.60;;;3.25;;
31306;SDS011;17935;51.120;13.132;2022-09-27T04:16:53;4.57;;;3.05;;
31306;SDS011;17935;51.120;13.132;2022-09-27T04:19:19;5.60;;;3.20;;
31306;SDS011;17935;51.120;13.132;2022-09-27T04:21:45;5.35;;;3.33;;
31306;SDS011;17935;51.120;13.132;2022-09-27T04:24:11;6.93;;;4.05;;
31306;SDS011;17935;51.120;13.132;2022-09-27T04:26:37;3.30;;;3.00;;
31306;SDS011;17935;51.120;13.132;2022-09-27T04:29:04;5.13;;;3.17;;
31306;SDS011;17935;51.120;13.132;2022-09-27T04:31:30;5.97;;;3.38;;
31306;SDS011;17935;51.120;13.132;2022-09-27T04:33:56;8.25;;;4.70;;
31306;SDS011;17935;51.120;13.132;2022-09-27T04:36:22;8.07;;;5.25;;
31306;SDS011;17935;51.120;13.132;2022-09-27T04:38:50;8.27;;;5.75;;
31306;SDS011;17935;51.120;13.132;2022-09-27T04:41:16;10.90;;;5.95;;
31306;SDS011;17935;51.120;13.132;2022-09-27T04:43:42;17.80;;;7.13;;
31306;SDS011;17935;51.120;13.132;2022-09-27T04:46:08;18.65;;;8.38;;
31306;SDS011;17935;51.120;13.132;2022-09-27T04:48:34;17.05;;;7.68;;
31306;SDS011;17935;51.120;13.132;2022-09-27T04:51:00;30.92;;;11.57;;
31306;SDS011;17935;51.120;13.132;2022-09-27T04:53:26;16.88;;;9.18;;
31306;SDS011;17935;51.120;13.132;2022-09-27T04:55:53;12.68;;;6.60;;
31306;SDS011;17935;51.120;13.132;2022-09-27T04:58:20;7.95;;;4.65;;
31306;SDS011;17935;51.120;13.132;2022-09-27T05:00:46;6.38;;;4.43;;
31306;SDS011;17935;51.120;13.132;2022-09-27T05:03:12;9.20;;;4.18;;
31306;SDS011;17935;51.120;13.132;2022-09-27T05:05:39;4.50;;;4.05;;
31306;SDS011;17935;51.120;13.132;2022-09-27T05:08:05;6.97;;;3.72;;
31306;SDS011;17935;51.120;13.132;2022-09-27T05:10:31;7.78;;;4.03;;
31306;SDS011;17935;51.120;13.132;2022-09-27T05:12:57;5.20;;;3.75;;
31306;SDS011;17935;51.120;13.132;2022-09-27T05:15:23;7.00;;;3.60;;
31306;SDS011;17935;51.120;13.132;2022-09-27T05:17:52;4.60;;;4.10;;
31306;SDS011;17935;51.120;13.132;2022-09-27T05:20:18;5.65;;;3.67;;
31306;SDS011;17935;51.120;13.132;2022-09-27T05:22:44;4.43;;;3.60;;
31306;SDS011;17935;51.120;13.132;2022-09-27T05:25:10;4.63;;;3.70;;
31306;SDS011;17935;51.120;13.132;2022-09-27T05:27:36;8.02;;;4.07;;
31306;SDS011;17935;51.120;13.132;2022-09-27T05:30:02;4.63;;;3.95;;
31306;SDS011;17935;51.120;13.132;2022-09-27T05:32:29;7.93;;;4.32;;
31306;SDS011;17935;51.120;13.132;2022-09-27T05:34:55;5.20;;;4.05;;
31306;SDS011;17935;51.120;13.132;2022-09-27T05:37:21;6.90;;;4.90;;
31306;SDS011;17935;51.120;13.132;2022-09-27T05:39:47;13.93;;;6.38;;
31306;SDS011;17935;51.120;13.132;2022-09-27T05:42:13;20.23;;;9.98;;
31306;SDS011;17935;51.120;13.132;2022-09-27T05:44:40;12.27;;;4.53;;
31306;SDS011;17935;51.120;13.132;2022-09-27T05:47:06;9.32;;;4.18;;
31306;SDS011;17935;51.120;13.132;2022-09-27T05:49:32;6.20;;;3.45;;
31306;SDS011;17935;51.120;13.132;2022-09-27T05:51:58;7.05;;;3.40;;
31306;SDS011;17935;51.120;13.132;2022-09-27T05:54:24;3.67;;;2.90;;
31306;SDS011;17935;51.120;13.132;2022-09-27T05:56:54;4.15;;;3.55;;
31306;SDS011;17935;51.120;13.132;2022-09-27T05:59:22;4.97;;;3.55;;
31306;SDS011;17935;51.120;13.132;2022-09-27T06:01:48;5.65;;;3.47;;
31306;SDS011;17935;51.120;13.132;2022-09-27T06:04:15;4.82;;;3.70;;
31306;SDS011;17935;51.120;13.132;2022-09-27T06:06:41;6.75;;;4.28;;
31306;SDS011;17935;51.120;13.132;2022-09-27T06:09:11;4.72;;;3.67;;
31306;SDS011;17935;51.120;13.132;2022-09-27T06:11:38;3.40;;;2.78;;
31306;SDS011;17935;51.120;13.132;2022-09-27T06:14:04;3.97;;;3.08;;
31306;SDS011;17935;51.120;13.132;2022-09-27T06:16:30;6.20;;;2.60;;
31306;SDS011;17935;51.120;13.132;2022-09-27T06:18:55;4.88;;;2.90;;
31306;SDS011;17935;51.120;13.132;2022-09-27T06:21:22;2.78;;;2.30;;
31306;SDS011;17935;51.120;13.132;2022-09-27T06:23:48;3.05;;;2.58;;
31306;SDS011;17935;51.120;13.132;2022-09-27T06:26:14;6.82;;;4.35;;
31306;SDS011;17935;51.120;13.132;2022-09-27T06:28:40;13.00;;;5.53;;
31306;SDS011;17935;51.120;13.132;2022-09-27T06:31:06;8.07;;;4.97;;
31306;SDS011;17935;51.120;13.132;2022-09-27T06:33:33;5.50;;;3.38;;
31306;SDS011;17935;51.120;13.132;2022-09-27T06:36:05;5.82;;;2.72;;
31306;SDS011;17935;51.120;13.132;2022-09-27T06:38:31;2.60;;;2.40;;
31306;SDS011;17935;51.120;13.132;2022-09-27T06:41:01;2.53;;;2.08;;
31306;SDS011;17935;51.120;13.132;2022-09-27T06:43:27;4.00;;;2.50;;
31306;SDS011;17935;51.120;13.132;2022-09-27T06:45:54;2.88;;;2.30;;
31306;SDS011;17935;51.120;13.132;2022-09-27T06:48:20;2.35;;;2.15;;
31306;SDS011;17935;51.120;13.132;2022-09-27T06:50:46;2.75;;;2.10;;
31306;SDS011;17935;51.120;13.132;2022-09-27T06:53:13;3.03;;;2.75;;
31306;SDS011;17935;51.120;13.132;2022-09-27T06:55:40;4.50;;;2.53;;
31306;SDS011;17935;51.120;13.132;2022-09-27T06:58:06;2.60;;;2.28;;
31306;SDS011;17935;51.120;13.132;2022-09-27T07:00:51;4.88;;;2.63;;
31306;SDS011;17935;51.120;13.132;2022-09-27T07:03:17;5.18;;;2.35;;
31306;SDS011;17935;51.120;13.132;2022-09-27T07:05:53;1.88;;;1.50;;
31306;SDS011;17935;51.120;13.132;2022-09-27T07:08:20;1.42;;;1.33;;
31306;SDS011;17935;51.120;13.132;2022-09-27T07:10:46;2.83;;;1.73;;
31306;SDS011;17935;51.120;13.132;2022-09-27T07:13:11;3.30;;;2.00;;
31306;SDS011;17935;51.120;13.132;2022-09-27T07:15:39;1.77;;;1.35;;
31306;SDS011;17935;51.120;13.132;2022-09-27T07:18:05;3.45;;;1.33;;
31306;SDS011;17935;51.120;13.132;2022-09-27T07:20:32;1.25;;;1.15;;
31306;SDS011;17935;51.120;13.132;2022-09-27T07:23:01;1.20;;;1.10;;
31306;SDS011;17935;51.120;13.132;2022-09-27T07:25:27;1.08;;;1.00;;
31306;SDS011;17935;51.120;13.132;2022-09-27T07:27:53;1.23;;;1.10;;
31306;SDS011;17935;51.120;13.132;2022-09-27T07:30:19;5.13;;;1.10;;
31306;SDS011;17935;51.120;13.132;2022-09-27T07:32:45;1.25;;;1.10;;
31306;SDS011;17935;51.120;13.132;2022-09-27T07:35:11;1.05;;;0.95;;
31306;SDS011;17935;51.120;13.132;2022-09-27T07:37:40;1.08;;;0.95;;
31306;SDS011;17935;51.120;13.132;2022-09-27T07:40:07;3.95;;;1.48;;
31306;SDS011;17935;51.120;13.132;2022-09-27T07:42:34;1.30;;;1.20;;
31306;SDS011;17935;51.120;13.132;2022-09-27T07:45:03;1.55;;;1.30;;
31306;SDS011;17935;51.120;13.132;2022-09-27T07:47:29;2.28;;;1.20;;
31306;SDS011;17935;51.120;13.132;2022-09-27T07:49:55;2.60;;;1.27;;
31306;SDS011;17935;51.120;13.132;2022-09-27T07:52:21;1.50;;;1.20;;
31306;SDS011;17935;51.120;13.132;2022-09-27T07:54:47;2.03;;;1.20;;
31306;SDS011;17935;51.120;13.132;2022-09-27T07:57:13;1.52;;;1.00;;
31306;SDS011;17935;51.120;13.132;2022-09-27T07:59:40;1.42;;;0.90;;
31306;SDS011;17935;51.120;13.132;2022-09-27T08:02:07;1.20;;;1.10;;
31306;SDS011;17935;51.120;13.132;2022-09-27T08:04:35;1.10;;;1.00;;
31306;SDS011;17935;51.120;13.132;2022-09-27T08:07:01;1.38;;;1.17;;
31306;SDS011;17935;51.120;13.132;2022-09-27T08:09:27;2.45;;;0.93;;
31306;SDS011;17935;51.120;13.132;2022-09-27T08:11:54;1.63;;;0.80;;
31306;SDS011;17935;51.120;13.132;2022-09-27T08:14:22;0.57;;;0.57;;
31306;SDS011;17935;51.120;13.132;2022-09-27T08:16:48;0.98;;;0.90;;
31306;SDS011;17935;51.120;13.132;2022-09-27T08:19:15;4.00;;;0.70;;
31306;SDS011;17935;51.120;13.132;2022-09-27T08:21:42;1.48;;;0.80;;
31306;SDS011;17935;51.120;13.132;2022-09-27T08:24:08;1.00;;;0.70;;
31306;SDS011;17935;51.120;13.132;2022-09-27T08:26:34;0.88;;;0.60;;
31306;SDS011;17935;51.120;13.132;2022-09-27T08:29:00;0.85;;;0.80;;
31306;SDS011;17935;51.120;13.132;2022-09-27T08:31:25;0.88;;;0.80;;
31306;SDS011;17935;51.120;13.132;2022-09-27T08:33:51;1.42;;;0.70;;
31306;SDS011;17935;51.120;13.132;2022-09-27T08:36:18;0.52;;;0.52;;
31306;SDS011;17935;51.120;13.132;2022-09-27T08:38:47;0.68;;;0.68;;
31306;SDS011;17935;51.120;13.132;2022-09-27T08:41:25;1.27;;;0.95;;
31306;SDS011;17935;51.120;13.132;2022-09-27T08:46:34;0.93;;;0.60;;
31306;SDS011;17935;51.120;13.132;2022-09-27T08:49:05;1.17;;;0.65;;
31306;SDS011;17935;51.120;13.132;2022-09-27T08:51:34;0.50;;;0.50;;
31306;SDS011;17935;51.120;13.132;2022-09-27T08:54:07;1.42;;;0.60;;
31306;SDS011;17935;51.120;13.132;2022-09-27T08:56:36;0.57;;;0.57;;
31306;SDS011;17935;51.120;13.132;2022-09-27T09:01:47;0.95;;;0.70;;
31306;SDS011;17935;51.120;13.132;2022-09-27T09:04:22;0.50;;;0.50;;
31306;SDS011;17935;51.120;13.132;2022-09-27T09:07:01;1.00;;;0.50;;
31306;SDS011;17935;51.120;13.132;2022-09-27T09:09:39;0.57;;;0.55;;
31306;SDS011;17935;51.120;13.132;2022-09-27T09:15:13;1.25;;;0.38;;
31306;SDS011;17935;51.120;13.132;2022-09-27T09:23:18;1.30;;;0.57;;
31306;SDS011;17935;51.120;13.132;2022-09-27T09:25:48;0.95;;;0.70;;
31306;SDS011;17935;51.120;13.132;2022-09-27T09:33:27;1.23;;;0.52;;
31306;SDS011;17935;51.120;13.132;2022-09-27T09:38:35;1.08;;;0.55;;
31306;SDS011;17935;51.120;13.132;2022-09-27T09:41:16;1.52;;;0.63;;
31306;SDS011;17935;51.120;13.132;2022-09-27T09:43:44;0.50;;;0.50;;
31306;SDS011;17935;51.120;13.132;2022-09-27T09:46:55;0.50;;;0.50;;
31306;SDS011;17935;51.120;13.132;2022-09-27T09:51:41;2.50;;;0.68;;
31306;SDS011;17935;51.120;13.132;2022-09-27T09:56:51;1.35;;;0.70;;
31306;SDS011;17935;51.120;13.132;2022-09-27T09:59:27;0.77;;;0.70;;
31306;SDS011;17935;51.120;13.132;2022-09-27T10:01:57;2.38;;;1.00;;
31306;SDS011;17935;51.120;13.132;2022-09-27T10:04:26;0.80;;;0.80;;
31306;SDS011;17935;51.120;13.132;2022-09-27T10:06:52;1.10;;;0.60;;
31306;SDS011;17935;51.120;13.132;2022-09-27T10:09:23;0.70;;;0.70;;
31306;SDS011;17935;51.120;13.132;2022-09-27T10:11:49;1.98;;;0.75;;
31306;SDS011;17935;51.120;13.132;2022-09-27T10:14:17;1.13;;;0.70;;
31306;SDS011;17935;51.120;13.132;2022-09-27T10:16:52;0.70;;;0.65;;
31306;SDS011;17935;51.120;13.132;2022-09-27T10:19:25;0.60;;;0.60;;
31306;SDS011;17935;51.120;13.132;2022-09-27T10:21:54;1.73;;;0.95;;
31306;SDS011;17935;51.120;13.132;2022-09-27T10:24:23;0.70;;;0.70;;
31306;SDS011;17935;51.120;13.132;2022-09-27T10:26:49;3.28;;;1.10;;
31306;SDS011;17935;51.120;13.132;2022-09-27T10:31:42;0.88;;;0.80;;
31306;SDS011;17935;51.120;13.132;2022-09-27T10:34:19;3.78;;;0.73;;
31306;SDS011;17935;51.120;13.132;2022-09-27T10:36:45;0.50;;;0.50;;
31306;SDS011;17935;51.120;13.132;2022-09-27T10:39:26;1.88;;;0.70;;
31306;SDS011;17935;51.120;13.132;2022-09-27T10:41:52;0.70;;;0.70;;
31306;SDS011;17935;51.120;13.132;2022-09-27T10:44:20;0.45;;;0.45;;
31306;SDS011;17935;51.120;13.132;2022-09-27T10:46:50;0.47;;;0.47;;
31306;SDS011;17935;51.120;13.132;2022-09-27T10:49:21;1.23;;;0.70;;
31306;SDS011;17935;51.120;13.132;2022-09-27T10:51:49;0.95;;;0.63;;
31306;SDS011;17935;51.120;13.132;2022-09-27T10:54:20;0.60;;;0.60;;
31306;SDS011;17935;51.120;13.132;2022-09-27T10:56:53;1.35;;;0.88;;
31306;SDS011;17935;51.120;13.132;2022-09-27T10:59:20;0.90;;;0.90;;
31306;SDS011;17935;51.120;13.132;2022-09-27T11:01:47;1.13;;;0.70;;
31306;SDS011;17935;51.120;13.132;2022-09-27T11:04:18;0.60;;;0.60;;
31306;SDS011;17935;51.120;13.132;2022-09-27T11:06:45;0.65;;;0.65;;
31306;SDS011;17935;51.120;13.132;2022-09-27T11:09:16;0.60;;;0.52;;
31306;SDS011;17935;51.120;13.132;2022-09-27T11:11:43;0.50;;;0.50;;
31306;SDS011;17935;51.120;13.132;2022-09-27T11:14:21;0.80;;;0.73;;
31306;SDS011;17935;51.120;13.132;2022-09-27T11:19:42;1.08;;;0.75;;
31306;SDS011;17935;51.120;13.132;2022-09-27T11:22:21;1.27;;;0.70;;
31306;SDS011;17935;51.120;13.132;2022-09-27T11:30:41;1.63;;;0.60;;
31306;SDS011;17935;51.120;13.132;2022-09-27T11:38:31;1.85;;;0.60;;
31306;SDS011;17935;51.120;13.132;2022-09-27T11:41:05;0.98;;;0.88;;
31306;SDS011;17935;51.120;13.132;2022-09-27T11:43:51;0.85;;;0.70;;
31306;SDS011;17935;51.120;13.132;2022-09-27T12:07:04;1.08;;;0.70;;
31306;SDS011;17935;51.120;13.132;2022-09-27T12:09:33;1.75;;;0.65;;
31306;SDS011;17935;51.120;13.132;2022-09-27T12:12:05;0.77;;;0.70;;
31306;SDS011;17935;51.120;13.132;2022-09-27T12:14:44;0.63;;;0.63;;
31306;SDS011;17935;51.120;13.132;2022-09-27T12:17:13;0.70;;;0.70;;
31306;SDS011;17935;51.120;13.132;2022-09-27T12:19:42;1.27;;;0.80;;
31306;SDS011;17935;51.120;13.132;2022-09-27T12:22:11;0.68;;;0.60;;
31306;SDS011;17935;51.120;13.132;2022-09-27T12:24:39;1.50;;;0.80;;
31306;SDS011;17935;51.120;13.132;2022-09-27T12:27:11;1.15;;;0.60;;
31306;SDS011;17935;51.120;13.132;2022-09-27T12:29:39;0.75;;;0.52;;
31306;SDS011;17935;51.120;13.132;2022-09-27T12:32:17;1.92;;;0.70;;
31306;SDS011;17935;51.120;13.132;2022-09-27T12:37:17;0.80;;;0.80;;
31306;SDS011;17935;51.120;13.132;2022-09-27T12:39:49;0.80;;;0.80;;
31306;SDS011;17935;51.120;13.132;2022-09-27T12:42:21;0.88;;;0.73;;
31306;SDS011;17935;51.120;13.132;2022-09-27T12:44:49;0.57;;;0.57;;
31306;SDS011;17935;51.120;13.132;2022-09-27T12:47:22;1.00;;;0.90;;
31306;SDS011;17935;51.120;13.132;2022-09-27T12:50:06;1.13;;;0.90;;
31306;SDS011;17935;51.120;13.132;2022-09-27T12:52:37;0.80;;;0.80;;
31306;SDS011;17935;51.120;13.132;2022-09-27T12:55:16;1.40;;;0.70;;
31306;SDS011;17935;51.120;13.132;2022-09-27T13:00:33;1.85;;;1.00;;
31306;SDS011;17935;51.120;13.132;2022-09-27T13:05:58;3.08;;;1.02;;
31306;SDS011;17935;51.120;13.132;2022-09-27T13:08:50;0.93;;;0.93;;
31306;SDS011;17935;51.120;13.132;2022-09-27T13:13:47;1.33;;;1.20;;
31306;SDS011;17935;51.120;13.132;2022-09-27T13:16:13;1.10;;;0.77;;
31306;SDS011;17935;51.120;13.132;2022-09-27T13:18:49;1.10;;;1.00;;
31306;SDS011;17935;51.120;13.132;2022-09-27T13:24:01;0.68;;;0.68;;
31306;SDS011;17935;51.120;13.132;2022-09-27T13:28:57;1.27;;;0.95;;
31306;SDS011;17935;51.120;13.132;2022-09-27T13:36:58;1.35;;;0.90;;
31306;SDS011;17935;51.120;13.132;2022-09-27T13:39:44;1.45;;;0.82;;
31306;SDS011;17935;51.120;13.132;2022-09-27T13:42:13;2.47;;;0.68;;
31306;SDS011;17935;51.120;13.132;2022-09-27T13:44:49;1.55;;;0.82;;
31306;SDS011;17935;51.120;13.132;2022-09-27T13:47:27;0.77;;;0.60;;
31306;SDS011;17935;51.120;13.132;2022-09-27T13:50:01;1.17;;;0.80;;
31306;SDS011;17935;51.120;13.132;2022-09-27T13:52:33;0.93;;;0.73;;
31306;SDS011;17935;51.120;13.132;2022-09-27T13:55:01;1.70;;;0.98;;
31306;SDS011;17935;51.120;13.132;2022-09-27T13:57:42;0.75;;;0.70;;
31306;SDS011;17935;51.120;13.132;2022-09-27T14:00:10;1.40;;;0.82;;
31306;SDS011;17935;51.120;13.132;2022-09-27T14:02:44;0.52;;;0.52;;
31306;SDS011;17935;51.120;13.132;2022-09-27T14:05:16;0.65;;;0.65;;
31306;SDS011;17935;51.120;13.132;2022-09-27T14:07:45;1.77;;;0.80;;
31306;SDS011;17935;51.120;13.132;2022-09-27T14:10:11;0.98;;;0.70;;
31306;SDS011;17935;51.120;13.132;2022-09-27T14:12:39;0.63;;;0.60;;
31306;SDS011;17935;51.120;13.132;2022-09-27T14:15:06;1.88;;;0.80;;
31306;SDS011;17935;51.120;13.132;2022-09-27T14:17:33;1.25;;;1.10;;
31306;SDS011;17935;51.120;13.132;2022-09-27T14:19:59;3.60;;;0.75;;
31306;SDS011;17935;51.120;13.132;2022-09-27T14:22:27;3.03;;;1.42;;
31306;SDS011;17935;51.120;13.132;2022-09-27T14:24:54;5.15;;;2.03;;
31306;SDS011;17935;51.120;13.132;2022-09-27T14:27:24;2.33;;;1.73;;
31306;SDS011;17935;51.120;13.132;2022-09-27T14:32:21;1.60;;;1.48;;
31306;SDS011;17935;51.120;13.132;2022-09-27T14:37:52;2.00;;;1.27;;
31306;SDS011;17935;51.120;13.132;2022-09-27T14:40:19;1.25;;;1.17;;
31306;SDS011;17935;51.120;13.132;2022-09-27T14:42:46;1.13;;;0.95;;
31306;SDS011;17935;51.120;13.132;2022-09-27T14:45:17;1.23;;;1.13;;
31306;SDS011;17935;51.120;13.132;2022-09-27T14:47:45;1.10;;;0.88;;
31306;SDS011;17935;51.120;13.132;2022-09-27T14:50:15;1.33;;;0.90;;
31306;SDS011;17935;51.120;13.132;2022-09-27T14:52:42;1.90;;;1.13;;
31306;SDS011;17935;51.120;13.132;2022-09-27T14:55:14;2.00;;;1.30;;
31306;SDS011;17935;51.120;13.132;2022-09-27T14:57:44;2.03;;;1.17;;
31306;SDS011;17935;51.120;13.132;2022-09-27T15:00:18;0.90;;;0.90;;
31306;SDS011;17935;51.120;13.132;2022-09-27T15:02:45;2.13;;;1.42;;
31306;SDS011;17935;51.120;13.132;2022-09-27T15:05:18;4.35;;;1.35;;
31306;SDS011;17935;51.120;13.132;2022-09-27T15:07:45;1.27;;;1.10;;
31306;SDS011;17935;51.120;13.132;2022-09-27T15:10:15;2.30;;;1.65;;
31306;SDS011;17935;51.120;13.132;2022-09-27T15:12:42;1.98;;;1.02;;
31306;SDS011;17935;51.120;13.132;2022-09-27T15:15:11;2.53;;;1.38;;
31306;SDS011;17935;51.120;13.132;2022-09-27T15:17:43;2.42;;;1.42;;
31306;SDS011;17935;51.120;13.132;2022-09-27T15:22:48;2.55;;;1.20;;
31306;SDS011;17935;51.120;13.132;2022-09-27T15:25:34;2.28;;;1.00;;
31306;SDS011;17935;51.120;13.132;2022-09-27T15:28:05;2.08;;;1.63;;
31306;SDS011;17935;51.120;13.132;2022-09-27T15:30:42;2.05;;;1.23;;
31306;SDS011;17935;51.120;13.132;2022-09-27T15:33:17;4.25;;;1.30;;
31306;SDS011;17935;51.120;13.132;2022-09-27T15:35:47;3.67;;;1.30;;
31306;SDS011;17935;51.120;13.132;2022-09-27T15:38:27;1.67;;;1.38;;
31306;SDS011;17935;51.120;13.132;2022-09-27T15:40:59;5.10;;;1.00;;
31306;SDS011;17935;51.120;13.132;2022-09-27T15:45:54;1.95;;;1.15;;
31306;SDS011;17935;51.120;13.132;2022-09-27T15:48:21;1.27;;;1.17;;
31306;SDS011;17935;51.120;13.132;2022-09-27T15:50:47;1.10;;;0.98;;
31306;SDS011;17935;51.120;13.132;2022-09-27T15:55:58;2.45;;;1.13;;
31306;SDS011;17935;51.120;13.132;2022-09-27T15:58:24;1.65;;;1.10;;
31306;SDS011;17935;51.120;13.132;2022-09-27T16:00:51;1.95;;;1.60;;
31306;SDS011;17935;51.120;13.132;2022-09-27T16:03:17;4.70;;;1.73;;
31306;SDS011;17935;51.120;13.132;2022-09-27T16:05:43;4.07;;;2.00;;
31306;SDS011;17935;51.120;13.132;2022-09-27T16:08:09;3.42;;;1.45;;
31306;SDS011;17935;51.120;13.132;2022-09-27T16:10:37;2.63;;;1.58;;
31306;SDS011;17935;51.120;13.132;2022-09-27T16:13:03;1.73;;;1.42;;
31306;SDS011;17935;51.120;13.132;2022-09-27T16:15:29;7.72;;;1.60;;
31306;SDS011;17935;51.120;13.132;2022-09-27T16:17:55;3.47;;;1.65;;
31306;SDS011;17935;51.120;13.132;2022-09-27T16:20:22;1.60;;;1.48;;
31306;SDS011;17935;51.120;13.132;2022-09-27T16:22:49;2.38;;;1.50;;
31306;SDS011;17935;51.120;13.132;2022-09-27T16:25:15;3.42;;;1.50;;
31306;SDS011;17935;51.120;13.132;2022-09-27T16:27:41;2.08;;;1.50;;
31306;SDS011;17935;51.120;13.132;2022-09-27T16:30:07;2.03;;;1.17;;
31306;SDS011;17935;51.120;13.132;2022-09-27T16:32:38;1.90;;;1.65;;
31306;SDS011;17935;51.120;13.132;2022-09-27T16:35:04;2.92;;;1.60;;
31306;SDS011;17935;51.120;13.132;2022-09-27T16:37:30;3.15;;;2.22;;
31306;SDS011;17935;51.120;13.132;2022-09-27T16:39:56;2.83;;;1.98;;
31306;SDS011;17935;51.120;13.132;2022-09-27T16:42:23;2.42;;;2.15;;
31306;SDS011;17935;51.120;13.132;2022-09-27T16:44:51;3.50;;;1.80;;
31306;SDS011;17935;51.120;13.132;2022-09-27T16:47:17;10.50;;;1.80;;
31306;SDS011;17935;51.120;13.132;2022-09-27T16:49:43;3.33;;;1.80;;
31306;SDS011;17935;51.120;13.132;2022-09-27T16:52:28;2.70;;;1.70;;